This is the latest recevied weather packets stored in our database for station/object JA3YAI-13. If no packets are shown the sender has not sent any weather packets the latest 1 day(s).
| Time | Temp. | Humidity | Pressure | Rain* | Wind** | Luminosity | Snow |
|---|---|---|---|---|---|---|---|
| 1778060211 | 17.22° C | 77% | 1009.6 hPa | 0 mm | - | - | - |
| 1778059613 | 17.22° C | 75% | 1009.6 hPa | 0 mm | - | - | - |
| 1778059013 | 17.78° C | 75% | 1009.5 hPa | 0 mm | - | - | - |
| 1778058413 | 17.78° C | 74% | 1009.6 hPa | 0 mm | - | - | - |
| 1778057813 | 17.78° C | 74% | 1009.6 hPa | 0 mm | - | - | - |
| 1778057213 | 18.33° C | 75% | 1009.6 hPa | 0 mm | - | - | - |
| 1778056613 | 17.78° C | 73% | 1009.7 hPa | 0 mm | - | - | - |
| 1778055412 | 18.33° C | 72% | 1009.9 hPa | 0 mm | - | - | - |
| 1778054812 | 18.33° C | 72% | 1009.9 hPa | 0 mm | - | - | - |
| 1778054212 | 18.89° C | 70% | 1010.1 hPa | 0 mm | - | - | - |
| 1778053612 | 19.44° C | 70% | 1009.9 hPa | 0 mm | - | - | - |
| 1778053014 | 19.44° C | 72% | 1010.1 hPa | 0 mm | - | - | - |
| 1778052414 | 19.44° C | 71% | 1010.2 hPa | 0 mm | - | - | - |
| 1778051814 | 18.89° C | 72% | 1009.7 hPa | 0 mm | - | - | - |
| 1778051214 | 18.89° C | 72% | 1010.3 hPa | 0 mm | - | - | - |
| 1778050614 | 19.44° C | 71% | 1010.1 hPa | 0 mm | - | - | - |
| 1778050014 | 20° C | 70% | 1010.1 hPa | 0 mm | - | - | - |
| 1778045813 | 19.44° C | 75% | 1011.4 hPa | 0 mm | - | - | - |
| 1778045213 | 18.89° C | 73% | 1011.5 hPa | 0 mm | - | - | - |
| 1778044613 | 18.89° C | 72% | 1011.3 hPa | 0 mm | - | - | - |
| 1778044013 | 19.44° C | 72% | 1011.3 hPa | 0 mm | - | - | - |
| 1778043413 | 18.33° C | 74% | 1011.4 hPa | 0 mm | - | - | - |
| 1778042813 | 17.78° C | 75% | 1011.7 hPa | 0 mm | - | - | - |
| 1778042212 | 18.33° C | 73% | 1011.2 hPa | 0 mm | - | - | - |
| 1778040412 | 18.33° C | 75% | 1012.1 hPa | 0 mm | - | - | - |
* Rain latest hour (hover to see other rain measurements)
** Current wind speed in m/s (hover to see current wind gust speed)